Terminal Aerodrome Forecast
Issued by NWS

Current Version | Previous Version | Graphics & Text | Print | Product List | Glossary On
Versions: 1 2 3 4 5 6 7 8 9 10 11 12 13 14 15 16 17 18 19 20 21 22 23
000
FTUS41 KRLX 300500
TAFCKB
TAF
KCKB 300524Z 3006/0106 00000KT 2SM BR FEW001
     FM300700 00000KT 1/2SM FG VV001
     FM301300 VRB03KT 3SM BR SCT002 SCT045
     FM301400 25006KT P6SM SCT045
     FM301800 26007KT P6SM BKN045
     FM302100 26006KT P6SM VCSH BKN040
     FM010200 VRB03KT 6SM HZ BKN040=

USA.gov is the U.S. government's official web portal to all federal, state and local government web resources and services.